Time;durP1;ratioP1;P1;durP2;ratioP2;P2;SDS_P1;SDS_P2;PMS_P1;PMS_P2;Temp;Humidity;BMP_temperature;BMP_pressure;BME280_temperature;BME280_humidity;BME280_pressure;Samples;Min_cycle;Max_cycle;Signal;HPM_P1;HPM_P2
2023/03/28 00:00:25;;;;;;;3.80;2.03;;;5.50;99.90;;;;;;5026829;28;20050;-77
2023/03/28 00:02:52;;;;;;;4.38;2.30;;;5.50;99.90;;;;;;5024544;28;20054;-77
2023/03/28 00:05:18;;;;;;;5.78;2.22;;;5.50;99.90;;;;;;5025781;28;20065;-77
2023/03/28 00:07:45;;;;;;;2.40;1.83;;;5.50;99.90;;;;;;5027856;28;20133;-76
2023/03/28 00:10:12;;;;;;;3.05;2.40;;;5.50;99.90;;;;;;5025345;28;20050;-77
2023/03/28 00:12:39;;;;;;;4.03;2.70;;;5.50;99.90;;;;;;5030937;28;20129;-76
2023/03/28 00:15:06;;;;;;;3.65;1.98;;;5.50;99.90;;;;;;5024092;28;20513;-76
2023/03/28 00:17:33;;;;;;;2.45;1.60;;;5.60;99.90;;;;;;5024970;28;20060;-77
2023/03/28 00:20:03;;;;;;;3.40;1.63;;;5.60;99.90;;;;;;5026687;28;20055;-75
2023/03/28 00:22:32;;;;;;;4.40;2.00;;;5.60;99.90;;;;;;5033358;28;20050;-76
2023/03/28 00:24:59;;;;;;;1.80;1.50;;;5.60;99.90;;;;;;5023611;28;20046;-77
2023/03/28 00:27:26;;;;;;;5.30;2.03;;;5.60;99.90;;;;;;5025050;28;20049;-76
2023/03/28 00:29:52;;;;;;;2.35;2.00;;;5.60;99.90;;;;;;5025975;28;20052;-76
2023/03/28 00:32:19;;;;;;;2.92;1.83;;;5.70;99.90;;;;;;5024081;28;20042;-77
2023/03/28 00:34:45;;;;;;;5.25;2.90;;;5.70;99.90;;;;;;5024138;28;20060;-77
2023/03/28 00:37:16;;;;;;;2.92;2.10;;;5.70;99.90;;;;;;5032722;28;20429;-76
2023/03/28 00:39:48;;;;;;;;;;;5.70;99.90;;;;;;5025644;28;20127;-76
2023/03/28 00:42:17;;;;;;;4.90;2.40;;;5.70;99.90;;;;;;5023782;28;20356;-77
2023/03/28 00:44:50;;;;;;;3.72;2.40;;;5.70;99.90;;;;;;5023516;28;20473;-77
2023/03/28 00:47:36;;;;;;;2.88;2.10;;;5.70;99.90;;;;;;5024342;28;20074;-76
2023/03/28 00:50:12;;;;;;;2.58;1.92;;;5.70;99.90;;;;;;5024187;28;20050;-76
2023/03/28 00:52:44;;;;;;;5.68;1.80;;;5.70;99.90;;;;;;5014609;28;20049;-76
2023/03/28 00:55:19;;;;;;;3.40;2.10;;;5.70;99.90;;;;;;5014447;28;20052;-76
2023/03/28 00:57:48;;;;;;;4.82;1.88;;;5.70;99.90;;;;;;5014729;28;20050;-76
2023/03/28 01:00:17;;;;;;;3.35;2.03;;;5.70;99.90;;;;;;5021397;28;20505;-76
2023/03/28 01:02:49;;;;;;;4.18;2.10;;;5.70;99.90;;;;;;5014443;28;20133;-77
2023/03/28 01:05:21;;;;;;;2.28;1.95;;;5.70;99.90;;;;;;5030225;28;20058;-76
2023/03/28 01:07:52;;;;;;;6.22;2.20;;;5.70;99.90;;;;;;5023622;28;20449;-77
2023/03/28 01:10:20;;;;;;;5.18;2.08;;;5.70;99.90;;;;;;5023049;28;20140;-75
2023/03/28 01:12:47;;;;;;;3.30;1.83;;;5.70;99.90;;;;;;5029581;28;20543;-76
2023/03/28 01:15:14;;;;;;;6.45;2.22;;;5.70;99.90;;;;;;5025288;28;20061;-76
2023/03/28 01:17:42;;;;;;;6.65;3.20;;;5.70;99.90;;;;;;5024102;28;20050;-76
2023/03/28 01:20:26;;;;;;;4.90;2.30;;;5.70;99.90;;;;;;5022364;28;20485;-76
2023/03/28 01:23:30;;;;;;;4.03;2.42;;;5.60;99.90;;;;;;5022754;28;20429;-76
2023/03/28 01:26:07;;;;;;;4.07;2.42;;;5.60;99.90;;;;;;5024844;28;20420;-77
2023/03/28 01:29:02;;;;;;;4.28;2.13;;;5.60;99.90;;;;;;5023825;28;20136;-76
2023/03/28 01:32:08;;;;;;;2.92;1.80;;;5.60;99.90;;;;;;5025393;28;20049;-77
2023/03/28 01:34:57;;;;;;;3.55;1.90;;;5.60;99.90;;;;;;5023765;28;20049;-76
2023/03/28 01:37:56;;;;;;;6.10;1.95;;;5.60;99.90;;;;;;5025111;28;20049;-77
2023/03/28 01:40:22;;;;;;;3.88;2.15;;;5.50;99.90;;;;;;5023990;28;20049;-76
2023/03/28 01:43:04;;;;;;;5.07;2.40;;;5.50;99.90;;;;;;5022318;28;20054;-76
2023/03/28 01:45:44;;;;;;;4.43;2.50;;;5.50;99.90;;;;;;5022385;28;20132;-77
2023/03/28 01:48:45;;;;;;;5.68;2.45;;;5.40;99.90;;;;;;5022599;28;20052;-77
2023/03/28 01:51:37;;;;;;;3.95;2.40;;;5.40;99.90;;;;;;5023876;28;20053;-76
2023/03/28 01:54:07;;;;;;;3.92;2.33;;;5.30;99.90;;;;;;5025164;28;20409;-76
2023/03/28 01:56:50;;;;;;;4.07;2.08;;;5.30;99.90;;;;;;5022613;28;20054;-77
2023/03/28 01:59:25;;;;;;;3.17;2.03;;;5.20;99.90;;;;;;5023360;28;20107;-77
2023/03/28 02:02:35;;;;;;;3.53;2.10;;;5.20;99.90;;;;;;5022399;28;20413;-77
2023/03/28 02:05:07;;;;;;;3.38;2.00;;;5.20;99.90;;;;;;5021261;28;20534;-76
2023/03/28 02:07:35;;;;;;;2.10;1.85;;;5.10;99.90;;;;;;5027095;28;20046;-76
2023/03/28 02:12:44;;;;;;;2.60;1.55;;;5.00;99.90;;;;;;4992034;28;20426;-79
2023/03/28 02:15:15;;;;;;;4.18;1.70;;;4.90;99.90;;;;;;4981639;28;20054;-79
2023/03/28 02:17:48;;;;;;;2.88;1.70;;;4.90;99.90;;;;;;4989032;28;20050;-78
2023/03/28 02:20:21;;;;;;;3.40;1.83;;;4.90;99.90;;;;;;4990855;28;20046;-79
2023/03/28 02:23:02;;;;;;;5.90;1.88;;;4.80;99.90;;;;;;5009174;28;20050;-78
2023/03/28 02:25:30;;;;;;;2.50;1.55;;;4.80;99.90;;;;;;5008145;28;20089;-79
2023/03/28 02:28:02;;;;;;;5.35;1.90;;;4.80;99.90;;;;;;5004763;28;20054;-78
2023/03/28 02:30:28;;;;;;;5.00;1.85;;;4.80;99.90;;;;;;5001335;28;20042;-79
2023/03/28 02:33:00;;;;;;;3.42;2.00;;;4.70;99.90;;;;;;5010369;28;20053;-79
2023/03/28 02:35:45;;;;;;;3.00;2.00;;;4.70;99.90;;;;;;5023403;28;20132;-79
2023/03/28 02:38:46;;;;;;;4.05;1.60;;;4.60;99.90;;;;;;5003338;28;20057;-78
2023/03/28 02:41:29;;;;;;;4.10;2.03;;;4.50;99.90;;;;;;5006450;28;20056;-79
2023/03/28 02:44:25;;;;;;;2.58;1.80;;;4.50;99.90;;;;;;5009384;28;20053;-79
2023/03/28 02:47:02;;;;;;;4.03;1.80;;;4.40;99.90;;;;;;5011268;28;20060;-79
2023/03/28 02:49:47;;;;;;;3.53;1.95;;;4.40;99.90;;;;;;5004979;28;20049;-79
2023/03/28 02:52:50;;;;;;;3.10;1.70;;;4.30;99.90;;;;;;5006082;28;20137;-79
2023/03/28 02:55:22;;;;;;;2.47;1.77;;;4.30;99.90;;;;;;5007817;28;20057;-79
2023/03/28 02:57:53;;;;;;;2.75;2.00;;;4.30;99.90;;;;;;5010098;28;20056;-79
2023/03/28 03:00:21;;;;;;;3.30;2.00;;;4.30;99.90;;;;;;5004221;28;20042;-79
2023/03/28 03:02:52;;;;;;;4.57;2.30;;;4.30;99.90;;;;;;4995745;28;20055;-78
2023/03/28 03:05:20;;;;;;;5.78;2.15;;;4.20;99.90;;;;;;5008066;28;20046;-78
2023/03/28 03:07:48;;;;;;;4.95;2.22;;;4.20;99.90;;;;;;5010112;28;20454;-79
2023/03/28 03:10:16;;;;;;;3.67;2.00;;;4.20;99.90;;;;;;5012512;28;20457;-77
2023/03/28 03:12:42;;;;;;;3.25;2.15;;;4.20;99.90;;;;;;5005904;28;20096;-78
2023/03/28 03:15:10;;;;;;;4.13;2.05;;;4.10;99.90;;;;;;5008036;28;20058;-77
2023/03/28 03:17:37;;;;;;;3.97;2.03;;;4.10;99.90;;;;;;5002930;28;20062;-78
2023/03/28 03:20:06;;;;;;;4.63;2.15;;;4.10;99.90;;;;;;5024820;28;20054;-77
2023/03/28 03:22:33;;;;;;;3.10;2.42;;;4.10;99.90;;;;;;4997188;28;20046;-78
2023/03/28 03:25:05;;;;;;;4.03;1.92;;;4.10;99.90;;;;;;5004489;28;20512;-77
2023/03/28 03:27:33;;;;;;;2.58;1.95;;;4.00;99.90;;;;;;4999723;28;20050;-77
2023/03/28 03:30:00;;;;;;;9.32;2.67;;;4.00;99.90;;;;;;5009694;28;20497;-78
2023/03/28 03:32:27;;;;;;;3.33;2.08;;;3.90;99.90;;;;;;5012049;28;20042;-78
2023/03/28 03:34:53;;;;;;;8.05;2.40;;;3.90;99.90;;;;;;5014350;28;20422;-78
2023/03/28 03:37:21;;;;;;;2.95;2.10;;;3.90;99.90;;;;;;5005076;28;20042;-77
2023/03/28 03:39:47;;;;;;;3.65;2.10;;;3.80;99.90;;;;;;5021340;28;20084;-78
2023/03/28 03:42:14;;;;;;;7.60;2.22;;;3.80;99.90;;;;;;5031830;28;20028;-78
2023/03/28 03:44:41;;;;;;;2.65;2.00;;;3.80;99.90;;;;;;5032733;28;20213;-78
2023/03/28 03:47:08;;;;;;;2.53;1.90;;;3.80;99.90;;;;;;5024386;28;20065;-77
2023/03/28 03:49:35;;;;;;;4.18;2.08;;;3.80;99.90;;;;;;5034920;28;20154;-77
2023/03/28 03:52:02;;;;;;;5.35;2.08;;;3.70;99.90;;;;;;4994377;28;20049;-77
2023/03/28 03:54:28;;;;;;;3.70;2.28;;;3.70;99.90;;;;;;5019846;28;20042;-78
2023/03/28 03:56:55;;;;;;;5.00;1.80;;;3.70;99.90;;;;;;5006984;28;20061;-78
2023/03/28 03:59:22;;;;;;;6.82;1.85;;;3.60;99.90;;;;;;5005444;28;20186;-77
2023/03/28 04:01:49;;;;;;;3.63;2.03;;;3.60;99.90;;;;;;5003168;28;20496;-76
2023/03/28 04:04:16;;;;;;;2.42;1.95;;;3.60;99.90;;;;;;5003176;28;20096;-77
2023/03/28 04:06:42;;;;;;;2.58;1.80;;;3.60;99.90;;;;;;5005374;28;20413;-77
2023/03/28 04:09:09;;;;;;;6.78;1.90;;;3.50;99.90;;;;;;5006895;28;20046;-76
2023/03/28 04:11:36;;;;;;;1.70;1.58;;;3.50;99.90;;;;;;5004102;28;20130;-77
2023/03/28 04:14:03;;;;;;;3.88;1.90;;;3.50;99.90;;;;;;5000090;28;20391;-77
2023/03/28 04:16:30;;;;;;;4.13;1.67;;;3.40;99.90;;;;;;5004156;28;20085;-77
2023/03/28 04:19:09;;;;;;;5.45;1.70;;;3.40;99.90;;;;;;5007492;28;20443;-77
2023/03/28 04:21:40;;;;;;;6.03;1.92;;;3.40;99.90;;;;;;5013712;28;20132;-77
2023/03/28 04:24:07;;;;;;;2.55;1.63;;;3.40;99.90;;;;;;5002549;28;20140;-77
2023/03/28 04:26:38;;;;;;;5.38;2.28;;;3.40;99.90;;;;;;5009348;28;20088;-77
2023/03/28 04:29:05;;;;;;;4.60;2.30;;;3.30;99.90;;;;;;5022985;28;20594;-78
2023/03/28 04:31:34;;;;;;;3.78;2.08;;;3.30;99.90;;;;;;5011198;28;20052;-77
2023/03/28 04:34:02;;;;;;;6.95;2.70;;;3.30;99.90;;;;;;5014144;28;20073;-77
2023/03/28 04:36:30;;;;;;;3.42;1.90;;;3.20;99.90;;;;;;5003824;28;20413;-77
2023/03/28 04:39:00;;;;;;;3.85;1.92;;;3.20;99.90;;;;;;5002181;28;20084;-77
2023/03/28 04:41:30;;;;;;;8.60;2.20;;;3.20;99.90;;;;;;5010047;28;20091;-76
2023/03/28 04:43:57;;;;;;;3.95;2.63;;;3.10;99.90;;;;;;5011775;28;20046;-76
2023/03/28 04:46:24;;;;;;;8.68;2.58;;;3.10;99.90;;;;;;5021950;28;20038;-77
2023/03/28 04:48:50;;;;;;;6.43;2.13;;;3.10;99.90;;;;;;5000268;28;20050;-77
2023/03/28 04:51:23;;;;;;;4.40;1.70;;;3.10;99.90;;;;;;5021795;28;20042;-78
2023/03/28 04:53:50;;;;;;;4.13;2.05;;;3.00;99.90;;;;;;5005211;28;20050;-78
2023/03/28 04:56:17;;;;;;;3.78;1.80;;;3.00;99.90;;;;;;5012810;28;20128;-78
2023/03/28 04:58:44;;;;;;;3.70;1.92;;;3.00;99.90;;;;;;5006154;28;20057;-77
2023/03/28 05:01:12;;;;;;;3.15;2.20;;;2.90;99.90;;;;;;5004265;28;20090;-78
2023/03/28 05:03:39;;;;;;;2.30;1.60;;;2.90;99.90;;;;;;5020253;28;20072;-77
2023/03/28 05:06:06;;;;;;;2.30;1.92;;;2.90;99.90;;;;;;5008258;28;20047;-78
2023/03/28 05:08:33;;;;;;;3.42;1.88;;;2.90;99.90;;;;;;5026854;28;20519;-77
2023/03/28 05:11:00;;;;;;;2.80;1.92;;;2.80;99.90;;;;;;5002227;28;20046;-77
2023/03/28 05:13:27;;;;;;;3.78;1.90;;;2.80;99.90;;;;;;5006081;28;20476;-77
2023/03/28 05:15:54;;;;;;;4.45;2.20;;;2.80;99.90;;;;;;5022677;28;20081;-77
2023/03/28 05:18:21;;;;;;;4.35;2.40;;;2.80;99.90;;;;;;5010382;28;20050;-77
2023/03/28 05:20:48;;;;;;;3.13;2.10;;;2.80;99.90;;;;;;5007217;28;20497;-78
2023/03/28 05:23:15;;;;;;;3.28;2.13;;;2.80;99.90;;;;;;5005325;28;20056;-78
2023/03/28 05:25:41;;;;;;;3.85;2.20;;;2.80;99.90;;;;;;5017986;28;20133;-78
2023/03/28 05:28:08;;;;;;;3.05;2.10;;;2.70;99.90;;;;;;5007962;28;20046;-77
2023/03/28 05:30:35;;;;;;;4.85;2.08;;;2.70;99.90;;;;;;5011377;28;20050;-78
2023/03/28 05:33:02;;;;;;;4.35;2.08;;;2.70;99.90;;;;;;5011224;28;20057;-77
2023/03/28 05:35:29;;;;;;;4.55;2.55;;;2.60;99.90;;;;;;4995587;28;20043;-77
2023/03/28 05:37:56;;;;;;;3.15;2.00;;;2.60;99.90;;;;;;5009050;28;20050;-78
2023/03/28 05:40:22;;;;;;;4.88;2.10;;;2.60;99.90;;;;;;5009397;28;20502;-78
2023/03/28 05:42:49;;;;;;;2.53;1.80;;;2.60;99.90;;;;;;5012183;28;20058;-78
2023/03/28 05:45:16;;;;;;;2.40;1.90;;;2.60;99.90;;;;;;5011462;28;20049;-78
2023/03/28 05:47:43;;;;;;;6.30;2.35;;;2.60;99.90;;;;;;5001268;28;20136;-78
2023/03/28 05:50:10;;;;;;;3.08;1.92;;;2.60;99.90;;;;;;5004382;28;20052;-78
2023/03/28 05:52:37;;;;;;;2.80;1.92;;;2.60;99.90;;;;;;5007974;28;20085;-78
2023/03/28 05:55:04;;;;;;;6.50;2.40;;;2.60;99.90;;;;;;5013391;28;20057;-78
2023/03/28 05:57:31;;;;;;;5.95;2.05;;;2.60;99.90;;;;;;5019602;28;20101;-78
2023/03/28 05:59:58;;;;;;;3.28;2.20;;;2.60;99.90;;;;;;5001688;28;20047;-78
2023/03/28 06:02:25;;;;;;;4.68;2.10;;;2.70;99.90;;;;;;5026480;28;20129;-79
2023/03/28 06:04:52;;;;;;;3.42;2.30;;;2.70;99.90;;;;;;5007750;28;20105;-78
2023/03/28 06:07:20;;;;;;;3.95;1.80;;;2.70;99.90;;;;;;5012883;28;20509;-78
2023/03/28 06:10:06;;;;;;;5.75;2.10;;;2.70;99.90;;;;;;5006260;28;20505;-79
2023/03/28 06:12:33;;;;;;;4.57;2.08;;;2.80;99.90;;;;;;5020083;28;20081;-78
2023/03/28 06:14:59;;;;;;;4.63;3.28;;;2.80;99.90;;;;;;5007355;28;20114;-78
2023/03/28 06:17:26;;;;;;;5.55;2.75;;;2.80;99.90;;;;;;5028979;28;20049;-78
2023/03/28 06:19:53;;;;;;;8.15;4.00;;;2.80;99.90;;;;;;5010657;28;20105;-78
2023/03/28 06:22:20;;;;;;;11.63;4.50;;;2.90;99.90;;;;;;5000045;28;20053;-78
2023/03/28 06:24:46;;;;;;;7.88;3.28;;;2.90;99.90;;;;;;5002440;28;20122;-79
2023/03/28 06:27:13;;;;;;;10.55;3.42;;;2.90;99.90;;;;;;5010852;28;20052;-79
2023/03/28 06:29:42;;;;;;;7.53;2.72;;;3.00;99.90;;;;;;5028073;28;20046;-78
2023/03/28 06:32:11;;;;;;;5.65;2.75;;;3.00;99.90;;;;;;5009901;28;20050;-79
2023/03/28 06:34:38;;;;;;;4.38;2.60;;;3.00;99.90;;;;;;5006728;28;20544;-78
2023/03/28 06:37:04;;;;;;;2.58;2.00;;;3.10;99.90;;;;;;5022241;28;20058;-78
2023/03/28 06:39:31;;;;;;;7.57;2.30;;;3.10;99.90;;;;;;5009566;28;20045;-79
2023/03/28 06:42:01;;;;;;;7.35;3.00;;;3.10;99.90;;;;;;5002625;28;20054;-79
2023/03/28 06:44:29;;;;;;;10.02;5.00;;;3.10;99.90;;;;;;5004704;28;20057;-79
2023/03/28 06:46:55;;;;;;;6.28;4.45;;;3.20;99.90;;;;;;4998795;28;20513;-78
2023/03/28 06:49:22;;;;;;;5.32;2.92;;;3.20;99.90;;;;;;5006734;28;20479;-79
2023/03/28 06:51:50;;;;;;;5.45;2.30;;;3.30;99.90;;;;;;5010637;28;20077;-79
2023/03/28 06:54:17;;;;;;;5.25;1.90;;;3.30;99.90;;;;;;5015605;28;20046;-79
2023/03/28 06:56:43;;;;;;;5.20;1.95;;;3.30;99.90;;;;;;5015345;28;20050;-78
2023/03/28 06:59:10;;;;;;;4.43;2.00;;;3.30;99.90;;;;;;5006481;28;20133;-78
2023/03/28 07:01:37;;;;;;;5.78;2.40;;;3.40;99.90;;;;;;5003893;28;20056;-78
2023/03/28 07:04:04;;;;;;;8.25;2.83;;;3.40;99.90;;;;;;5011504;28;20527;-78
2023/03/28 07:06:31;;;;;;;4.45;2.50;;;3.40;99.90;;;;;;5013014;28;20041;-78
2023/03/28 07:08:58;;;;;;;4.00;2.50;;;3.50;99.90;;;;;;5019766;28;20053;-79
2023/03/28 07:11:24;;;;;;;9.35;3.15;;;3.60;99.90;;;;;;5004450;28;20042;-77
2023/03/28 07:13:51;;;;;;;3.83;2.80;;;3.60;99.90;;;;;;5007550;28;20056;-77
2023/03/28 07:16:18;;;;;;;7.60;3.00;;;3.70;99.90;;;;;;5010709;28;20058;-77
2023/03/28 07:18:45;;;;;;;6.32;2.53;;;3.70;99.90;;;;;;5008720;28;20054;-79
2023/03/28 07:21:17;;;;;;;8.38;2.63;;;3.80;99.90;;;;;;5001337;28;20058;-76
2023/03/28 07:23:44;;;;;;;4.95;2.33;;;3.80;99.90;;;;;;5001129;28;20050;-77
2023/03/28 07:26:12;;;;;;;5.07;2.67;;;3.80;99.90;;;;;;5007420;28;20054;-78
2023/03/28 07:28:39;;;;;;;6.75;2.50;;;3.90;99.90;;;;;;5011335;28;20084;-77
2023/03/28 07:31:10;;;;;;;4.03;2.17;;;3.90;99.90;;;;;;5005056;28;20093;-78
2023/03/28 07:33:37;;;;;;;4.53;2.00;;;3.90;99.90;;;;;;4996878;28;20046;-78
2023/03/28 07:36:13;;;;;;;5.70;2.70;;;4.00;99.90;;;;;;5004958;28;20054;-78
2023/03/28 07:38:40;;;;;;;8.20;2.53;;;4.10;99.90;;;;;;5006901;28;20064;-79
2023/03/28 07:41:08;;;;;;;6.13;3.40;;;4.10;99.90;;;;;;5009231;28;20433;-77
2023/03/28 07:43:36;;;;;;;7.00;3.80;;;4.10;99.90;;;;;;4993382;28;20057;-77
2023/03/28 07:46:06;;;;;;;6.32;3.20;;;4.20;99.90;;;;;;5003749;28;20052;-77
2023/03/28 07:48:34;;;;;;;;;;;4.20;99.90;;;;;;4998779;28;20047;-77
2023/03/28 07:51:02;;;;;;;6.63;2.60;;;4.20;99.90;;;;;;5016430;28;19936;-77
2023/03/28 07:53:29;;;;;;;6.30;2.72;;;4.20;99.90;;;;;;5020852;28;20069;-78
2023/03/28 07:55:56;;;;;;;7.60;2.58;;;4.30;99.90;;;;;;5008639;28;20050;-78
2023/03/28 07:58:23;;;;;;;6.80;2.58;;;4.30;99.90;;;;;;5004751;28;20050;-78
2023/03/28 08:00:50;;;;;;;3.67;2.45;;;4.30;99.90;;;;;;4998133;28;20481;-78
2023/03/28 08:03:17;;;;;;;6.80;2.58;;;4.40;99.90;;;;;;5012652;28;20030;-79
2023/03/28 08:05:50;;;;;;;5.20;2.55;;;4.40;99.90;;;;;;5003737;28;20046;-79
2023/03/28 08:08:19;;;;;;;8.27;3.20;;;4.50;99.90;;;;;;5000167;28;20069;-78
2023/03/28 08:10:49;;;;;;;4.68;3.05;;;4.50;99.90;;;;;;5004677;28;20495;-77
2023/03/28 08:13:17;;;;;;;5.25;2.72;;;4.60;99.90;;;;;;5010085;28;20577;-78
2023/03/28 08:15:44;;;;;;;5.82;2.40;;;4.60;99.90;;;;;;5012181;28;20089;-77
2023/03/28 08:18:11;;;;;;;5.10;2.45;;;4.70;99.90;;;;;;5021014;28;20046;-77
2023/03/28 08:20:38;;;;;;;5.78;2.92;;;4.70;99.90;;;;;;4998129;28;20050;-77
2023/03/28 08:23:06;;;;;;;6.57;2.60;;;4.80;99.90;;;;;;5008217;28;20050;-78
2023/03/28 08:25:32;;;;;;;6.07;2.90;;;4.90;99.90;;;;;;5012345;28;20065;-79
2023/03/28 08:27:59;;;;;;;7.82;2.20;;;4.90;99.90;;;;;;5015365;28;20050;-79
2023/03/28 08:30:27;;;;;;;5.97;3.00;;;4.90;99.90;;;;;;5017601;28;20451;-78
2023/03/28 08:32:53;;;;;;;9.55;2.88;;;5.00;99.90;;;;;;5027388;28;20065;-79
2023/03/28 08:35:20;;;;;;;6.00;2.75;;;5.00;99.90;;;;;;5032172;28;20030;-79
2023/03/28 08:37:48;;;;;;;6.05;3.20;;;5.10;99.90;;;;;;5053202;28;20093;-79
2023/03/28 08:40:17;;;;;;;7.25;2.90;;;5.10;99.90;;;;;;5035889;28;20049;-79
2023/03/28 08:43:07;;;;;;;2.92;2.40;;;5.20;99.90;;;;;;5020883;28;20398;-79
2023/03/28 08:45:42;;;;;;;4.90;2.80;;;5.20;99.90;;;;;;5007222;28;20054;-79
2023/03/28 08:48:24;;;;;;;4.75;2.47;;;5.20;99.90;;;;;;5007340;28;20102;-79
2023/03/28 08:51:11;;;;;;;8.27;2.65;;;5.30;99.90;;;;;;5009249;28;20129;-78
2023/03/28 08:53:42;;;;;;;4.63;2.33;;;5.40;99.90;;;;;;4999051;28;20151;-79
2023/03/28 08:56:14;;;;;;;4.47;2.40;;;5.40;99.90;;;;;;5022482;28;20099;-79
2023/03/28 08:58:48;;;;;;;4.45;3.10;;;5.50;99.90;;;;;;5001391;28;20568;-79
2023/03/28 09:01:19;;;;;;;4.22;2.35;;;5.50;99.90;;;;;;5011903;28;20086;-79
2023/03/28 09:03:48;;;;;;;3.72;2.30;;;5.50;99.90;;;;;;5043578;23;20498;-77
2023/03/28 09:06:29;;;;;;;5.05;2.58;;;5.60;99.90;;;;;;5022472;28;20684;-77
2023/03/28 09:09:03;;;;;;;4.63;2.45;;;5.70;99.90;;;;;;5023058;28;20077;-76
2023/03/28 09:11:42;;;;;;;4.13;2.42;;;5.70;99.90;;;;;;5022190;28;20045;-77
2023/03/28 09:14:28;;;;;;;7.70;3.40;;;5.80;99.90;;;;;;5021382;28;20050;-77
2023/03/28 09:17:14;;;;;;;4.97;2.45;;;5.80;99.90;;;;;;5022996;28;20056;-78
2023/03/28 09:20:00;;;;;;;4.82;2.50;;;5.90;99.90;;;;;;5023260;28;20420;-76
2023/03/28 09:22:39;;;;;;;4.55;2.42;;;5.90;99.90;;;;;;5024371;28;20072;-77
2023/03/28 09:25:20;;;;;;;7.95;3.10;;;6.00;99.90;;;;;;5025201;28;20054;-77
2023/03/28 09:28:02;;;;;;;3.78;2.55;;;6.00;99.90;;;;;;5026244;28;20045;-76
2023/03/28 09:30:36;;;;;;;4.00;2.30;;;6.10;99.90;;;;;;5024707;28;20141;-77
2023/03/28 09:33:09;;;;;;;3.45;2.35;;;6.20;99.90;;;;;;5019808;28;20046;-77
2023/03/28 09:35:39;;;;;;;4.05;2.95;;;6.30;99.90;;;;;;5021238;28;20429;-77
2023/03/28 09:38:21;;;;;;;6.03;2.42;;;6.30;99.90;;;;;;5023501;28;20050;-74
2023/03/28 09:40:51;;;;;;;6.78;3.15;;;6.40;99.90;;;;;;5019141;28;20048;-75
2023/03/28 09:43:39;;;;;;;5.35;2.63;;;6.40;99.90;;;;;;5021897;28;20046;-75
2023/03/28 09:46:10;;;;;;;8.68;3.17;;;6.50;99.90;;;;;;5021955;28;20426;-75
2023/03/28 09:48:39;;;;;;;3.75;2.28;;;6.50;99.90;;;;;;5022598;28;20532;-75
2023/03/28 09:51:12;;;;;;;3.85;2.25;;;6.50;99.90;;;;;;5024419;28;20053;-75
2023/03/28 09:53:38;;;;;;;4.65;2.13;;;6.50;99.90;;;;;;5024055;28;20049;-75
2023/03/28 09:56:36;;;;;;;5.07;1.98;;;6.50;99.90;;;;;;5018479;28;20486;-75
2023/03/28 09:59:09;;;;;;;3.25;2.10;;;6.60;99.90;;;;;;5022486;28;20059;-75
2023/03/28 10:01:44;;;;;;;5.90;3.05;;;6.70;99.90;;;;;;5019734;28;20104;-75
2023/03/28 10:04:28;;;;;;;3.88;2.78;;;6.70;99.90;;;;;;5021510;28;20152;-75
2023/03/28 10:07:08;;;;;;;5.78;2.35;;;6.80;99.90;;;;;;5022119;28;20129;-74
2023/03/28 10:10:01;;;;;;;4.32;2.50;;;6.80;99.90;;;;;;5023064;28;20076;-75
2023/03/28 10:12:32;;;;;;;4.35;2.53;;;6.90;99.90;;;;;;5020093;28;20042;-75
2023/03/28 10:14:59;;;;;;;5.18;2.80;;;7.00;99.90;;;;;;5020254;28;20133;-75
2023/03/28 10:17:29;;;;;;;3.88;2.35;;;7.10;99.90;;;;;;5022295;28;20568;-76
2023/03/28 10:20:15;;;;;;;3.92;2.38;;;7.20;99.90;;;;;;5023822;28;20057;-75
2023/03/28 10:22:45;;;;;;;6.03;2.50;;;7.30;99.90;;;;;;5023731;28;20076;-75
2023/03/28 10:25:31;;;;;;;7.75;2.58;;;7.30;99.90;;;;;;5021509;28;20132;-75
2023/03/28 10:27:59;;;;;;;5.75;2.90;;;7.30;99.90;;;;;;5005085;28;20053;-75
2023/03/28 10:30:29;;;;;;;5.45;2.70;;;7.30;99.90;;;;;;5020867;28;20133;-75
2023/03/28 10:33:33;;;;;;;4.07;2.20;;;7.40;99.90;;;;;;5020672;28;20089;-76
2023/03/28 10:36:03;;;;;;;6.30;2.03;;;7.40;99.90;;;;;;5009136;28;20046;-76
2023/03/28 10:38:45;;;;;;;5.68;2.58;;;7.50;99.90;;;;;;5020732;28;20489;-76
2023/03/28 10:41:20;;;;;;;5.03;2.70;;;7.60;99.90;;;;;;5019857;28;20056;-76
2023/03/28 10:43:52;;;;;;;4.40;2.60;;;7.70;99.90;;;;;;5021330;28;20128;-76
2023/03/28 10:46:22;;;;;;;6.05;2.50;;;7.80;99.90;;;;;;5017643;28;20535;-76
2023/03/28 10:49:11;;;;;;;6.30;2.80;;;7.90;99.90;;;;;;5021072;28;20472;-76
2023/03/28 10:51:40;;;;;;;6.68;3.65;;;8.00;99.90;;;;;;5037941;28;20045;-76
2023/03/28 10:54:21;;;;;;;6.05;2.80;;;8.10;99.90;;;;;;5021721;28;20092;-76
2023/03/28 10:57:10;;;;;;;7.45;2.22;;;8.30;99.90;;;;;;5018668;28;20177;-76
2023/03/28 10:59:44;;;;;;;3.08;1.85;;;8.30;99.90;;;;;;5020257;28;20136;-76
2023/03/28 11:02:22;;;;;;;6.05;2.35;;;8.40;99.90;;;;;;5000289;28;20050;-76
2023/03/28 11:04:54;;;;;;;3.65;2.10;;;8.50;99.90;;;;;;5021793;28;20080;-76
2023/03/28 11:07:31;;;;;;;2.60;2.20;;;8.60;99.90;;;;;;5022575;28;20050;-76
2023/03/28 11:10:11;;;;;;;4.20;1.90;;;8.70;99.90;;;;;;5018308;28;20046;-76
2023/03/28 11:12:50;;;;;;;5.72;2.10;;;8.80;99.90;;;;;;5018461;28;20057;-76
2023/03/28 11:15:35;;;;;;;3.15;1.90;;;8.90;99.90;;;;;;5017665;28;20053;-76
2023/03/28 11:18:21;;;;;;;3.00;1.70;;;9.00;99.90;;;;;;5017726;28;20386;-76
2023/03/28 11:21:26;;;;;;;5.32;1.98;;;9.00;99.90;;;;;;5018671;28;20049;-76
2023/03/28 11:24:26;;;;;;;4.75;2.00;;;9.10;99.90;;;;;;4999578;28;20050;-76
2023/03/28 11:27:08;;;;;;;4.70;2.53;;;9.00;99.90;;;;;;4996629;28;20462;-76
2023/03/28 11:29:53;;;;;;;3.50;2.03;;;9.00;99.90;;;;;;5022470;28;20481;-76
2023/03/28 11:32:36;;;;;;;5.15;2.28;;;8.90;99.90;;;;;;5022582;28;20056;-76
2023/03/28 11:35:12;;;;;;;4.20;2.10;;;8.80;99.90;;;;;;5022666;28;20053;-76
2023/03/28 11:37:44;;;;;;;3.22;1.65;;;8.80;99.90;;;;;;5022268;28;20057;-76
2023/03/28 11:40:29;;;;;;;2.35;1.85;;;8.80;99.90;;;;;;5017134;28;20046;-76
2023/03/28 11:43:01;;;;;;;6.97;2.65;;;8.80;99.90;;;;;;4999697;28;20566;-76
2023/03/28 11:45:51;;;;;;;4.35;2.40;;;8.80;99.90;;;;;;5022713;28;20053;-76
2023/03/28 11:48:27;;;;;;;5.63;2.50;;;8.70;99.90;;;;;;5015404;28;20502;-76
2023/03/28 11:51:01;;;;;;;5.93;2.38;;;8.70;99.90;;;;;;5020045;28;20046;-76
2023/03/28 11:53:50;;;;;;;4.63;1.88;;;8.60;99.90;;;;;;5021032;28;20049;-76
2023/03/28 11:56:45;;;;;;;3.88;2.55;;;8.60;99.90;;;;;;5021347;28;20128;-76
2023/03/28 11:59:19;;;;;;;6.50;1.98;;;8.60;99.90;;;;;;5016900;28;20049;-76
2023/03/28 12:01:53;;;;;;;6.22;1.83;;;8.60;99.90;;;;;;5019093;28;20045;-76
2023/03/28 12:04:27;;;;;;;8.55;2.33;;;8.70;99.90;;;;;;5020599;28;20425;-76
2023/03/28 12:07:19;;;;;;;3.75;2.30;;;8.70;99.90;;;;;;5017559;28;20059;-76
2023/03/28 12:10:26;;;;;;;6.25;1.92;;;8.70;99.90;;;;;;5019504;28;20052;-76
2023/03/28 12:13:07;;;;;;;4.43;2.30;;;8.80;99.90;;;;;;5018849;28;20129;-76
2023/03/28 12:15:53;;;;;;;3.75;2.08;;;8.80;99.90;;;;;;5018391;28;20042;-76
2023/03/28 12:18:57;;;;;;;4.22;2.22;;;8.90;99.90;;;;;;5018886;28;20528;-76
2023/03/28 12:21:37;;;;;;;6.72;2.15;;;9.00;99.90;;;;;;4999808;28;20055;-75
2023/03/28 12:24:13;;;;;;;6.13;2.30;;;9.10;99.90;;;;;;5016613;28;20050;-76
2023/03/28 12:27:08;;;;;;;3.80;2.58;;;9.20;99.90;;;;;;5019695;28;20140;-76
2023/03/28 12:29:58;;;;;;;4.32;2.63;;;9.30;99.90;;;;;;5017880;28;20498;-76
2023/03/28 12:32:49;;;;;;;4.20;2.17;;;9.40;99.90;;;;;;5019841;28;20111;-76
2023/03/28 12:35:30;;;;;;;3.30;2.03;;;9.40;99.90;;;;;;5019274;28;20050;-76
2023/03/28 12:38:00;;;;;;;;;;;9.40;99.90;;;;;;5020296;28;20640;-76
2023/03/28 12:40:37;;;;;;;4.25;2.47;;;9.40;99.90;;;;;;5022641;28;19921;-76
2023/03/28 12:43:05;;;;;;;3.60;1.83;;;9.50;99.90;;;;;;5017103;28;20054;-75
2023/03/28 12:45:39;;;;;;;4.88;2.42;;;9.60;99.90;;;;;;5022600;28;20046;-76
2023/03/28 12:48:12;;;;;;;4.47;2.03;;;9.60;99.90;;;;;;5020763;28;20096;-76
2023/03/28 12:50:54;;;;;;;3.70;2.20;;;9.60;99.90;;;;;;5022862;28;20465;-76
2023/03/28 12:53:23;;;;;;;5.00;2.00;;;9.70;99.90;;;;;;5023150;28;20050;-76
2023/03/28 12:55:54;;;;;;;4.80;2.33;;;9.80;99.90;;;;;;5024637;28;20057;-76
2023/03/28 12:58:34;;;;;;;5.85;2.50;;;9.90;99.90;;;;;;5025207;28;20049;-76
2023/03/28 13:01:07;;;;;;;5.95;1.85;;;10.10;99.90;;;;;;5025320;28;20055;-76
2023/03/28 13:04:02;;;;;;;3.58;2.42;;;10.20;99.90;;;;;;5022801;28;20046;-76
2023/03/28 13:06:56;;;;;;;6.00;2.47;;;10.30;99.90;;;;;;5023214;28;20053;-76
2023/03/28 13:10:05;;;;;;;4.35;1.65;;;10.50;99.90;;;;;;5020540;28;20144;-76
2023/03/28 13:12:53;;;;;;;3.70;2.03;;;10.60;99.90;;;;;;4991569;28;20086;-76
2023/03/28 13:15:20;;;;;;;4.70;2.47;;;10.70;99.90;;;;;;5021653;28;20465;-76
2023/03/28 13:18:24;;;;;;;2.15;1.77;;;10.70;99.90;;;;;;5022549;28;20053;-76
2023/03/28 13:20:51;;;;;;;4.97;2.03;;;10.60;99.90;;;;;;5023148;28;20101;-76
2023/03/28 13:23:30;;;;;;;2.38;1.90;;;10.50;99.90;;;;;;5022484;28;20050;-76
2023/03/28 13:26:02;;;;;;;2.20;1.40;;;10.50;99.90;;;;;;5022401;28;20510;-76
2023/03/28 13:28:32;;;;;;;6.32;3.38;;;10.40;99.90;;;;;;5021752;28;20042;-76
2023/03/28 13:31:11;;;;;;;6.22;2.30;;;10.30;99.90;;;;;;5024790;28;20053;-76
2023/03/28 13:33:52;;;;;;;6.00;2.17;;;10.30;99.90;;;;;;5024766;28;20046;-76